X  CloseMetar Aviation Weather Data     EBBR Brussels

Temperature

17°C Temperature

15°C Dewpoint

88% Humidity



Wind

10 KM/H

 6 MPH

 3 M/S

 5 KTS



130°
South East
Current Conditions

Clear Clear
Pressure 1007.92 (hPa) - 29.76 (in)
Visibility 6.2 (mi) - 10 (km)
Airport
Airport-code EBBR

Location Brussels 14 (km)

Metar:
EBBR 190120Z 13005KT CAVOK 17/15 Q1008 NOSIG

Time: 2019-06-19 03:20